Terminal Aerodrome Forecast
Issued by NWS

Home | Current Version | Previous Version | Graphics & Text | Print | Product List | Glossary Off
Versions: 1 2 3 4 5 6 7 8 9 10 11 12 13 14 15 16 17

000
FTUS43 KUNR 022300
TAFGCC
TAF
KGCC 022325Z 0300/0324 36011KT P6SM OVC060
     FM030400 36015KT 3SM -SN BR OVC020
     FM030600 36020G30KT 3/4SM -SN BLSN OVC006
     FM031200 33017G27KT 2SM -SN BLSN OVC010
     FM031800 33014KT P6SM OVC015=

USA.gov is the U.S. government's official web portal to all federal, state and local government web resources and services.